Time;durP1;ratioP1;P1;durP2;ratioP2;P2;SDS_P1;SDS_P2;PMS_P1;PMS_P2;Temp;Humidity;BMP_temperature;BMP_pressure;BME280_temperature;BME280_humidity;BME280_pressure;Samples;Min_cycle;Max_cycle;Signal;HPM_P1;HPM_P2
2021/08/23 00:00:12;;;;;;;5.93;5.43;;;;;;;19.59;72.22;101138.06;698869;28;21532;-64
2021/08/23 00:00:33;;;;;;;6.13;5.53;;;;;;;19.59;72.25;101139.94;700298;28;1390;-64
2021/08/23 00:00:55;;;;;;;6.28;5.78;;;;;;;19.60;72.19;101141.63;698196;28;44395;-64
2021/08/23 00:01:16;;;;;;;6.63;6.03;;;;;;;19.61;72.12;101140.56;697369;28;44024;-65
2021/08/23 00:01:39;;;;;;;7.18;5.78;;;;;;;19.61;72.36;101144.16;699679;28;10702;-64
2021/08/23 00:02:00;;;;;;;6.43;5.80;;;;;;;19.62;72.11;101144.97;698374;28;44202;-64
2021/08/23 00:02:22;;;;;;;6.30;5.70;;;;;;;19.62;72.10;101145.84;699817;28;22469;-64
2021/08/23 00:02:43;;;;;;;5.97;5.47;;;;;;;19.62;71.98;101143.09;698129;28;44085;-65
2021/08/23 00:03:05;;;;;;;5.90;5.40;;;;;;;19.62;71.99;101140.34;699257;28;18952;-65
2021/08/23 00:03:26;;;;;;;6.43;5.80;;;;;;;19.64;72.10;101145.59;698564;28;45253;-64
2021/08/23 00:03:48;;;;;;;6.32;5.72;;;;;;;19.65;72.10;101140.94;698565;28;22402;-65
2021/08/23 00:04:09;;;;;;;6.15;5.65;;;;;;;19.65;72.05;101143.69;698645;28;45255;-66
2021/08/23 00:04:31;;;;;;;6.68;6.07;;;;;;;19.65;71.87;101149.16;699257;28;22397;-63
2021/08/23 00:04:52;;;;;;;6.32;5.72;;;;;;;19.65;71.97;101147.25;698109;28;45323;-64
2021/08/23 00:05:13;;;;;;;6.28;5.68;;;;;;;19.66;72.06;101143.47;699838;28;10948;-65
2021/08/23 00:05:35;;;;;;;6.47;5.70;;;;;;;19.63;71.88;101144.75;699452;28;21289;-64
2021/08/23 00:05:56;;;;;;;6.43;5.82;;;;;;;19.67;71.91;101149.78;698282;28;64857;-62
2021/08/23 00:06:17;;;;;;;6.20;5.70;;;;;;;19.67;72.09;101141.56;700222;28;968;-64
2021/08/23 00:06:38;;;;;;;6.35;5.75;;;;;;;19.67;71.91;101141.56;700116;28;11794;-66
2021/08/23 00:07:01;;;;;;;6.22;5.72;;;;;;;19.67;71.91;101134.19;700151;28;1808;-63
2021/08/23 00:07:22;;;;;;;6.57;5.80;;;;;;;19.66;71.97;101140.72;698103;28;46456;-63
2021/08/23 00:07:43;;;;;;;6.57;5.90;;;;;;;19.66;72.03;101146.22;699020;28;1038;-65
2021/08/23 00:08:05;;;;;;;6.38;5.88;;;;;;;19.64;71.82;101137.38;698895;28;22499;-64
2021/08/23 00:08:29;;;;;;;6.55;5.93;;;;;;;19.67;71.72;101147.03;698320;28;45346;-65
2021/08/23 00:08:51;;;;;;;6.70;6.10;;;;;;;19.65;71.89;101149.16;698298;28;38836;-66
2021/08/23 00:09:12;;;;;;;7.10;6.40;;;;;;;19.66;71.93;101148.94;699424;28;1381;-64
2021/08/23 00:09:33;;;;;;;7.80;6.43;;;;;;;19.66;71.97;101146.22;699412;28;20803;-64
2021/08/23 00:09:55;;;;;;;7.18;6.57;;;;;;;19.65;72.00;101144.53;700237;28;7195;-64
2021/08/23 00:10:17;;;;;;;7.32;6.72;;;;;;;19.64;71.89;101142.88;699860;28;886;-66
2021/08/23 00:10:38;;;;;;;7.15;6.45;;;;;;;19.65;71.82;101140.94;699669;28;1871;-64
2021/08/23 00:11:07;;;;;;;7.05;6.25;;;;;;;19.64;71.94;101145.59;697417;28;61636;-66
2021/08/23 00:11:29;;;;;;;7.20;6.07;;;;;;;19.62;71.86;101144.97;699120;28;22290;-65
2021/08/23 00:11:50;;;;;;;7.18;6.50;;;;;;;19.63;71.83;101144.75;699367;28;21413;-63
2021/08/23 00:12:11;;;;;;;8.48;7.18;;;;;;;19.62;71.88;101140.34;695935;28;21112;-64
2021/08/23 00:12:33;;;;;;;8.38;7.40;;;;;;;19.63;71.87;101144.75;698054;28;4108;-64
2021/08/23 00:12:54;;;;;;;8.38;7.15;;;;;;;19.61;71.92;101141.41;699572;28;11314;-64
2021/08/23 00:13:19;;;;;;;7.18;6.47;;;;;;;19.62;71.94;101147.72;697692;28;70279;-64
2021/08/23 00:13:40;;;;;;;7.55;6.78;;;;;;;19.60;71.81;101139.72;697435;28;67305;-64
2021/08/23 00:14:01;;;;;;;8.93;6.85;;;;;;;19.61;71.90;101143.31;699688;28;977;-64
2021/08/23 00:14:23;;;;;;;7.25;6.55;;;;;;;19.60;72.05;101144.38;700112;28;920;-64
2021/08/23 00:14:44;;;;;;;7.53;6.82;;;;;;;19.60;72.01;101144.38;700596;28;865;-64
2021/08/23 00:15:08;;;;;;;7.47;6.75;;;;;;;19.58;72.06;101136.38;698985;28;20224;-64
2021/08/23 00:15:30;;;;;;;8.77;7.18;;;;;;;19.56;72.21;101134.91;696579;28;92218;-64
2021/08/23 00:15:54;;;;;;;9.02;6.78;;;;;;;19.57;72.08;101140.19;699565;28;21821;-64
2021/08/23 00:16:16;;;;;;;7.82;7.03;;;;;;;19.56;72.20;101137.66;697138;28;90883;-65
2021/08/23 00:16:38;;;;;;;9.48;7.65;;;;;;;19.56;72.19;101140.41;698444;28;46614;-64
2021/08/23 00:16:59;;;;;;;8.00;7.20;;;;;;;19.56;72.30;101145.88;697506;28;69459;-65
2021/08/23 00:17:20;;;;;;;8.00;7.07;;;;;;;19.56;72.25;101140.41;700212;28;924;-64
2021/08/23 00:17:43;;;;;;;8.43;7.15;;;;;;;19.56;72.16;101140.41;698767;28;22088;-64
2021/08/23 00:18:04;;;;;;;8.05;7.07;;;;;;;19.55;72.32;101149.69;698789;28;24373;-65
2021/08/23 00:18:25;;;;;;;7.60;6.90;;;;;;;19.53;72.29;101149.94;699283;28;17244;-63
2021/08/23 00:18:47;;;;;;;7.72;7.03;;;;;;;19.55;72.46;101149.69;698316;28;22198;-67
2021/08/23 00:19:09;;;;;;;7.68;7.03;;;;;;;19.55;72.38;101146.97;696979;28;43121;-64
2021/08/23 00:19:31;;;;;;;8.15;7.35;;;;;;;19.55;72.45;101138.75;696339;28;69248;-65
2021/08/23 00:19:52;;;;;;;8.85;6.90;;;;;;;19.56;72.35;101148.63;697995;28;8434;-64
2021/08/23 00:20:16;;;;;;;7.70;7.00;;;;;;;19.57;72.36;101145.66;697822;28;17824;-65
2021/08/23 00:20:50;;;;;;;8.20;7.40;;;;;;;19.58;72.31;101149.25;695202;28;91753;-64
2021/08/23 00:21:12;;;;;;;8.40;7.50;;;;;;;19.57;72.32;101142.91;695140;28;136386;-63
2021/08/23 00:21:41;;;;;;;8.48;7.13;;;;;;;19.57;72.23;101139.34;699520;28;27093;-64
2021/08/23 00:22:19;;;;;;;8.82;7.60;;;;;;;19.58;72.25;101143.78;694023;28;160598;-64
2021/08/23 00:22:48;;;;;;;8.60;7.45;;;;;;;19.59;72.20;101143.53;694556;28;137580;-64
2021/08/23 00:23:11;;;;;;;8.15;7.15;;;;;;;19.59;72.25;101142.69;696170;28;118519;-64
2021/08/23 00:23:36;;;;;;;8.98;7.35;;;;;;;19.59;72.22;101138.06;697685;28;69482;-64
2021/08/23 00:24:06;;;;;;;8.40;7.60;;;;;;;19.60;72.23;101136.97;695551;28;115741;-64
2021/08/23 00:24:27;;;;;;;8.50;7.60;;;;;;;19.58;72.12;101133.63;695498;28;137458;-63
2021/08/23 00:24:50;;;;;;;8.18;7.45;;;;;;;19.59;72.33;101139.94;699140;28;23475;-63
2021/08/23 00:25:11;;;;;;;8.20;7.45;;;;;;;19.59;72.32;101135.31;698198;28;46337;-65
2021/08/23 00:25:32;;;;;;;8.60;7.80;;;;;;;19.58;72.29;101139.13;698348;28;24354;-66
2021/08/23 00:25:54;;;;;;;8.85;7.95;;;;;;;19.58;72.41;101141.84;699286;28;22367;-64
2021/08/23 00:26:15;;;;;;;8.80;7.90;;;;;;;19.59;72.39;101139.94;697850;28;69923;-64
2021/08/23 00:26:36;;;;;;;9.43;7.80;;;;;;;19.55;72.36;101136.84;699379;28;22238;-63
2021/08/23 00:26:58;;;;;;;8.98;7.80;;;;;;;19.58;72.35;101135.56;700052;28;13810;-63
2021/08/23 00:27:20;;;;;;;8.68;7.88;;;;;;;19.58;72.32;101133.63;697904;28;46759;-64
2021/08/23 00:27:41;;;;;;;8.90;7.93;;;;;;;19.58;72.47;101141.03;698156;28;35701;-65
2021/08/23 00:28:02;;;;;;;9.13;7.47;;;;;;;19.58;72.31;101138.28;700095;28;4272;-63
2021/08/23 00:28:23;;;;;;;9.75;7.90;;;;;;;19.58;72.46;101141.03;699815;28;14443;-65
2021/08/23 00:28:45;;;;;;;9.30;7.70;;;;;;;19.58;72.31;101136.38;699590;28;21469;-64
2021/08/23 00:29:07;;;;;;;8.90;8.00;;;;;;;19.58;72.47;101130.06;699499;28;12497;-67
2021/08/23 00:29:28;;;;;;;9.27;8.23;;;;;;;19.57;72.42;101133.88;698863;28;43325;-64
2021/08/23 00:29:49;;;;;;;10.07;8.25;;;;;;;19.58;72.52;101141.03;699698;28;22817;-64
2021/08/23 00:30:12;;;;;;;8.88;7.97;;;;;;;19.55;72.50;101133.28;699682;28;18759;-64
2021/08/23 00:30:34;;;;;;;8.90;8.07;;;;;;;19.58;72.58;101130.06;695802;28;69064;-64
2021/08/23 00:30:55;;;;;;;9.07;8.13;;;;;;;19.58;72.43;101130.06;696675;28;45003;-64
2021/08/23 00:31:16;;;;;;;9.18;8.15;;;;;;;19.58;72.44;101133.63;697038;28;21521;-65
2021/08/23 00:31:39;;;;;;;9.40;8.27;;;;;;;19.59;72.41;101131.72;696171;28;22369;-63
2021/08/23 00:32:00;;;;;;;10.23;8.50;;;;;;;19.60;72.48;101133.41;694084;28;90855;-67
2021/08/23 00:32:22;;;;;;;10.45;8.82;;;;;;;19.60;72.32;101136.16;696213;28;22412;-65
2021/08/23 00:32:43;;;;;;;11.10;8.57;;;;;;;19.59;72.39;101132.59;699599;28;14687;-63
2021/08/23 00:33:05;;;;;;;11.88;8.00;;;;;;;19.59;72.40;101138.06;699616;28;22391;-65
2021/08/23 00:33:26;;;;;;;9.18;8.13;;;;;;;19.58;72.26;101130.91;697563;28;67481;-65
2021/08/23 00:33:47;;;;;;;9.88;8.32;;;;;;;19.58;72.35;101128.16;699796;28;15287;-67
2021/08/23 00:34:10;;;;;;;9.38;7.82;;;;;;;19.59;72.37;101134.47;700039;28;1782;-64
2021/08/23 00:34:31;;;;;;;9.02;8.13;;;;;;;19.58;72.40;101135.56;698940;28;47668;-64
2021/08/23 00:34:52;;;;;;;8.93;8.00;;;;;;;19.57;72.60;101131.13;699174;28;22399;-65
2021/08/23 00:35:13;;;;;;;8.93;8.00;;;;;;;19.56;72.53;101130.31;699091;28;23434;-64
2021/08/23 00:35:35;;;;;;;10.30;8.32;;;;;;;19.55;72.49;101136.84;698813;28;22421;-64
2021/08/23 00:35:56;;;;;;;9.10;8.20;;;;;;;19.55;72.63;101136.00;698490;28;47226;-65
2021/08/23 00:36:18;;;;;;;9.88;8.82;;;;;;;19.54;72.64;101129.66;699435;28;21331;-64
2021/08/23 00:36:39;;;;;;;10.18;9.18;;;;;;;19.54;72.66;101131.59;696677;28;44176;-64
2021/08/23 00:37:01;;;;;;;10.35;8.82;;;;;;;19.54;72.67;101137.06;697997;28;23529;-65
2021/08/23 00:37:22;;;;;;;11.50;8.75;;;;;;;19.53;72.67;101140.84;696573;28;45239;-64
2021/08/23 00:37:43;;;;;;;9.55;8.57;;;;;;;19.51;72.74;101138.34;697064;28;21528;-64
2021/08/23 00:38:05;;;;;;;9.57;8.60;;;;;;;19.51;72.71;101137.50;697525;28;22402;-64
2021/08/23 00:38:27;;;;;;;9.73;8.60;;;;;;;19.48;72.74;101133.31;697111;28;46329;-67
2021/08/23 00:38:48;;;;;;;11.32;8.70;;;;;;;19.50;72.75;101138.56;698158;28;37791;-70
2021/08/23 00:39:10;;;;;;;9.30;8.40;;;;;;;19.50;72.66;101141.31;694937;28;21503;-64
2021/08/23 00:39:31;;;;;;;9.52;8.55;;;;;;;19.49;72.80;101135.00;694465;28;28360;-64
2021/08/23 00:39:54;;;;;;;9.32;8.43;;;;;;;19.48;72.84;101133.31;695558;28;938;-64
2021/08/23 00:40:15;;;;;;;9.80;8.80;;;;;;;19.47;72.79;101131.66;695588;28;4972;-64
2021/08/23 00:40:37;;;;;;;9.88;8.88;;;;;;;19.49;72.82;101139.66;696017;28;4619;-64
2021/08/23 00:40:58;;;;;;;10.13;8.75;;;;;;;19.48;72.86;101136.06;697226;28;46388;-65
2021/08/23 00:41:20;;;;;;;11.32;9.02;;;;;;;19.48;72.97;101140.72;698945;28;17368;-66
2021/08/23 00:41:42;;;;;;;10.75;8.70;;;;;;;19.48;72.87;101135.22;698130;28;46304;-65
2021/08/23 00:42:04;;;;;;;9.82;8.77;;;;;;;19.48;72.93;101133.31;698077;28;44136;-66
2021/08/23 00:42:25;;;;;;;9.45;8.55;;;;;;;19.50;73.00;101144.03;697380;28;45250;-66
2021/08/23 00:42:47;;;;;;;9.88;8.98;;;;;;;19.49;72.75;101137.75;698000;28;22410;-65
2021/08/23 00:43:08;;;;;;;10.00;9.00;;;;;;;19.51;73.03;101137.50;698262;28;44191;-65
2021/08/23 00:43:30;;;;;;;9.73;8.52;;;;;;;19.51;72.84;101140.25;699996;28;22355;-64
2021/08/23 00:43:52;;;;;;;9.93;8.93;;;;;;;19.51;72.90;101132.03;698907;28;23499;-64
2021/08/23 00:44:13;;;;;;;10.38;8.98;;;;;;;19.50;72.84;101136.69;698757;28;46350;-63
2021/08/23 00:44:35;;;;;;;11.57;9.32;;;;;;;19.45;72.72;101126.41;699396;28;23465;-63
2021/08/23 00:44:57;;;;;;;10.93;9.43;;;;;;;19.49;72.92;101135.00;698145;28;41921;-67
2021/08/23 00:45:18;;;;;;;10.18;9.18;;;;;;;19.49;72.72;101136.91;699066;28;28017;-69
2021/08/23 00:45:40;;;;;;;10.00;8.38;;;;;;;19.49;72.77;101136.91;698486;28;45248;-63
2021/08/23 00:46:03;;;;;;;9.77;8.77;;;;;;;19.49;72.82;101134.19;699353;28;23526;-65
2021/08/23 00:46:24;;;;;;;9.97;8.97;;;;;;;19.48;72.83;101133.31;699291;28;90319;-65
2021/08/23 00:46:48;;;;;;;9.95;8.95;;;;;;;19.48;72.86;101132.47;700398;28;44395;-65
2021/08/23 00:47:09;;;;;;;10.18;8.98;;;;;;;19.47;72.88;101130.81;700098;28;67487;-66
2021/08/23 00:47:30;;;;;;;10.52;9.48;;;;;;;19.47;72.89;101131.66;702139;28;9138;-66
2021/08/23 00:47:51;;;;;;;10.65;9.63;;;;;;;19.48;72.96;101132.47;701482;28;23495;-63
2021/08/23 00:48:13;;;;;;;9.85;8.90;;;;;;;19.49;72.86;101131.44;701740;28;15851;-65
2021/08/23 00:48:35;;;;;;;10.10;9.20;;;;;;;19.49;72.77;101134.19;700915;28;29810;-63
2021/08/23 00:48:56;;;;;;;10.40;9.35;;;;;;;19.49;72.81;101135.00;700324;28;23465;-63
2021/08/23 00:49:17;;;;;;;11.23;9.18;;;;;;;19.49;72.91;101135.00;700473;28;14376;-65
2021/08/23 00:49:39;;;;;;;11.02;8.80;;;;;;;19.49;72.74;101125.94;701479;28;913;-67
2021/08/23 00:50:00;;;;;;;10.20;9.13;;;;;;;19.48;72.87;101121.53;699761;28;46835;-67
2021/08/23 00:50:21;;;;;;;10.57;9.57;;;;;;;19.48;72.96;101121.53;697532;28;22492;-62
2021/08/23 00:50:42;;;;;;;10.60;9.50;;;;;;;19.51;72.98;101129.28;697499;28;22280;-66
2021/08/23 00:51:03;;;;;;;10.95;9.85;;;;;;;19.52;72.88;101128.25;697889;28;21572;-63
2021/08/23 00:51:25;;;;;;;10.18;9.18;;;;;;;19.51;72.65;101126.56;698952;28;18218;-65
2021/08/23 00:51:46;;;;;;;9.95;9.05;;;;;;;19.52;72.69;101129.06;698013;28;45360;-64
2021/08/23 00:52:09;;;;;;;10.52;9.52;;;;;;;19.53;72.79;101129.91;698777;28;22452;-64
2021/08/23 00:52:30;;;;;;;11.88;9.80;;;;;;;19.53;72.71;101130.75;699734;28;11765;-64
2021/08/23 00:52:52;;;;;;;11.85;9.80;;;;;;;19.53;72.79;101119.78;699831;28;4231;-64
2021/08/23 00:53:13;;;;;;;10.80;9.70;;;;;;;19.53;72.77;101130.75;697413;28;46269;-64
2021/08/23 00:53:35;;;;;;;10.90;9.55;;;;;;;19.54;72.65;101131.59;697442;28;21612;-65
2021/08/23 00:53:56;;;;;;;11.18;10.05;;;;;;;19.51;72.66;101129.28;696470;28;45372;-65
2021/08/23 00:54:18;;;;;;;11.52;10.07;;;;;;;19.52;72.75;101134.53;697311;28;23523;-64
2021/08/23 00:54:39;;;;;;;12.30;9.70;;;;;;;19.50;72.75;101133.09;694437;28;46310;-63
2021/08/23 00:55:02;;;;;;;12.32;9.77;;;;;;;19.50;72.74;101133.09;695590;28;21532;-66
2021/08/23 00:55:24;;;;;;;11.05;9.57;;;;;;;19.49;72.86;101131.44;696945;28;69467;-63
2021/08/23 00:55:45;;;;;;;11.10;10.00;;;;;;;19.46;72.82;101132.72;697622;28;45276;-65
2021/08/23 00:56:06;;;;;;;10.65;9.63;;;;;;;19.45;72.89;101133.78;699149;28;22414;-68
2021/08/23 00:56:27;;;;;;;10.75;9.65;;;;;;;19.45;73.07;101136.50;699187;28;22378;-64
2021/08/23 00:56:50;;;;;;;10.73;9.35;;;;;;;19.44;73.01;101126.63;698993;28;21541;-65
2021/08/23 00:57:21;;;;;;;10.40;9.10;;;;;;;19.43;73.11;101131.25;696749;28;61991;-65
2021/08/23 00:57:42;;;;;;;11.73;9.60;;;;;;;19.41;73.05;101130.66;698444;28;23527;-65
2021/08/23 00:58:03;;;;;;;12.48;9.70;;;;;;;19.40;73.17;101123.53;698364;28;44994;-65
2021/08/23 00:58:26;;;;;;;10.60;9.30;;;;;;;19.39;73.25;101127.31;699249;28;21472;-64
2021/08/23 00:58:49;;;;;;;10.52;9.45;;;;;;;19.37;73.29;101129.44;699752;28;895;-64
2021/08/23 00:59:11;;;;;;;9.90;9.00;;;;;;;19.37;73.50;101129.44;699299;28;1395;-66
2021/08/23 00:59:34;;;;;;;10.60;9.50;;;;;;;19.36;73.41;101126.94;698143;28;46368;-66
2021/08/23 00:59:55;;;;;;;11.63;9.65;;;;;;;19.35;73.39;101128.00;698824;28;36362;-64
2021/08/23 01:00:17;;;;;;;11.63;9.30;;;;;;;19.33;73.44;101128.22;699014;28;39432;-63
2021/08/23 01:00:44;;;;;;;10.85;9.70;;;;;;;19.32;73.54;101123.78;697659;28;39037;-66
2021/08/23 01:01:12;;;;;;;10.77;9.65;;;;;;;19.30;73.44;101130.56;697165;28;69469;-65
2021/08/23 01:01:41;;;;;;;12.30;10.17;;;;;;;19.28;73.61;101125.31;695649;28;116486;-64
2021/08/23 01:02:08;;;;;;;11.23;10.02;;;;;;;19.27;73.68;101126.38;694504;28;144466;-65
2021/08/23 01:02:34;;;;;;;10.70;9.65;;;;;;;19.27;73.77;101129.13;694853;28;137805;-65
2021/08/23 01:03:00;;;;;;;13.85;10.93;;;;;;;19.27;73.82;101126.38;694920;28;137764;-64
2021/08/23 01:03:28;;;;;;;11.25;10.07;;;;;;;19.26;73.75;101125.56;695703;28;115521;-64
2021/08/23 01:03:54;;;;;;;12.85;11.55;;;;;;;19.25;73.93;101126.59;694748;28;137486;-64
2021/08/23 01:04:20;;;;;;;16.25;13.32;;;;;;;19.25;73.87;101118.38;694872;28;138899;-65
2021/08/23 01:04:46;;;;;;;16.10;12.30;;;;;;;19.25;73.99;101128.50;695130;28;128341;-65
2021/08/23 01:05:13;;;;;;;13.85;11.77;;;;;;;19.24;73.92;101130.41;694114;28;133679;-64
2021/08/23 01:05:34;;;;;;;13.02;11.52;;;;;;;19.24;73.78;101126.81;695081;28;133959;-65
2021/08/23 01:05:55;;;;;;;12.35;11.05;;;;;;;19.23;73.94;101125.13;699366;28;22067;-64
2021/08/23 01:06:17;;;;;;;11.65;10.45;;;;;;;19.24;74.10;101132.31;699120;28;22386;-64
2021/08/23 01:06:39;;;;;;;11.40;10.20;;;;;;;19.23;74.05;101127.88;697752;28;46452;-64
2021/08/23 01:07:03;;;;;;;12.18;9.88;;;;;;;19.19;74.11;101119.28;698343;28;44374;-64
2021/08/23 01:07:26;;;;;;;12.00;10.10;;;;;;;19.22;74.04;101129.78;696608;28;92776;-63
2021/08/23 01:07:51;;;;;;;11.55;10.43;;;;;;;19.21;74.05;101128.09;696107;28;90461;-63
2021/08/23 01:08:17;;;;;;;11.50;10.30;;;;;;;19.23;74.13;101128.75;696198;28;115093;-65
2021/08/23 01:08:40;;;;;;;10.98;9.82;;;;;;;19.22;74.23;101127.06;694275;28;116780;-66
2021/08/23 01:09:04;;;;;;;12.25;9.82;;;;;;;19.22;74.03;101132.53;695530;28;92391;-65
2021/08/23 01:09:28;;;;;;;11.63;10.00;;;;;;;19.23;74.10;101130.63;694829;28;102869;-65
2021/08/23 01:09:52;;;;;;;11.32;10.07;;;;;;;19.24;74.15;101124.09;695967;28;54718;-66
2021/08/23 01:10:15;;;;;;;11.95;10.38;;;;;;;19.23;73.97;101131.47;695256;28;74854;-65
2021/08/23 01:10:39;;;;;;;10.80;9.77;;;;;;;19.23;73.91;101130.63;696784;28;69430;-66
2021/08/23 01:11:01;;;;;;;11.38;9.77;;;;;;;19.21;74.21;101125.38;697557;28;67501;-64
2021/08/23 01:11:23;;;;;;;12.90;10.20;;;;;;;19.24;73.95;101121.34;698538;28;46439;-64
2021/08/23 01:11:48;;;;;;;11.10;10.00;;;;;;;19.23;74.04;101127.88;698189;28;45252;-64
2021/08/23 01:12:09;;;;;;;12.45;10.20;;;;;;;19.21;73.91;101128.09;695519;28;114181;-65
2021/08/23 01:12:31;;;;;;;11.05;9.98;;;;;;;19.23;74.01;101125.13;698445;28;45225;-63
2021/08/23 01:12:54;;;;;;;11.35;10.18;;;;;;;19.22;74.05;101121.56;698077;28;44469;-64
2021/08/23 01:13:16;;;;;;;11.55;10.20;;;;;;;19.21;74.08;101133.56;697701;28;69444;-64
2021/08/23 01:13:41;;;;;;;12.52;10.20;;;;;;;19.21;74.18;101130.00;697954;28;44200;-65
2021/08/23 01:14:03;;;;;;;11.02;9.93;;;;;;;19.23;74.00;101127.88;696087;28;87227;-64
2021/08/23 01:14:26;;;;;;;11.65;9.48;;;;;;;19.23;74.20;101128.75;691517;28;113661;-64
2021/08/23 01:14:48;;;;;;;11.13;9.70;;;;;;;19.23;74.08;101130.63;694874;28;22263;-64
2021/08/23 01:15:09;;;;;;;11.40;9.60;;;;;;;19.24;74.13;101129.56;694723;28;22244;-65
2021/08/23 01:15:31;;;;;;;12.52;9.75;;;;;;;19.24;74.17;101135.88;695535;28;36863;-64
2021/08/23 01:15:53;;;;;;;11.30;10.02;;;;;;;19.24;74.04;101135.88;696306;28;43550;-64
2021/08/23 01:16:14;;;;;;;12.30;10.55;;;;;;;19.25;74.03;101134.00;697696;28;21582;-67
2021/08/23 01:16:35;;;;;;;11.55;10.32;;;;;;;19.24;74.03;101133.13;698925;28;21522;-65
2021/08/23 01:16:56;;;;;;;11.80;10.60;;;;;;;19.23;74.17;101134.22;699570;28;5617;-64
2021/08/23 01:17:20;;;;;;;11.52;10.30;;;;;;;19.26;74.11;101141.13;698622;28;23449;-64
2021/08/23 01:17:41;;;;;;;11.43;10.02;;;;;;;19.25;74.13;101131.25;695757;28;88565;-65
2021/08/23 01:18:02;;;;;;;11.95;9.95;;;;;;;19.25;74.17;101132.06;698393;28;21812;-64
2021/08/23 01:18:23;;;;;;;12.77;10.63;;;;;;;19.25;74.28;101131.25;698630;28;21541;-64
2021/08/23 01:18:45;;;;;;;13.63;10.70;;;;;;;19.24;74.19;101135.88;699110;28;23512;-64
2021/08/23 01:19:07;;;;;;;12.70;10.38;;;;;;;19.24;74.00;101137.78;697410;28;45267;-64
2021/08/23 01:19:30;;;;;;;12.20;10.75;;;;;;;19.24;74.05;101132.31;698647;28;40278;-64
2021/08/23 01:19:54;;;;;;;11.95;10.73;;;;;;;19.24;74.09;101132.31;697589;28;63567;-65
2021/08/23 01:20:15;;;;;;;13.10;10.38;;;;;;;19.24;74.11;101137.78;696524;28;93122;-65
2021/08/23 01:20:40;;;;;;;11.77;9.88;;;;;;;19.24;74.12;101140.50;699193;28;22399;-64
2021/08/23 01:21:03;;;;;;;12.05;10.75;;;;;;;19.24;74.17;101140.50;696150;28;115049;-64
2021/08/23 01:21:28;;;;;;;11.52;10.32;;;;;;;19.25;74.17;101129.34;697529;28;69435;-65
2021/08/23 01:21:50;;;;;;;12.35;10.25;;;;;;;19.24;74.20;101133.13;696787;28;91848;-65
2021/08/23 01:22:11;;;;;;;13.48;10.93;;;;;;;19.24;74.08;101143.25;698105;28;44388;-65
2021/08/23 01:22:38;;;;;;;11.57;10.38;;;;;;;19.23;74.05;101136.09;698357;28;45290;-64
2021/08/23 01:22:59;;;;;;;11.63;10.40;;;;;;;19.23;74.08;101136.09;694861;28;138184;-64
2021/08/23 01:23:21;;;;;;;12.90;10.60;;;;;;;19.23;74.14;101133.34;698184;28;46387;-64
2021/08/23 01:23:45;;;;;;;11.48;9.93;;;;;;;19.24;73.87;101135.03;698833;28;21591;-65
2021/08/23 01:24:08;;;;;;;10.68;9.57;;;;;;;19.25;74.12;101136.72;694957;28;115917;-63
2021/08/23 01:24:32;;;;;;;11.15;9.95;;;;;;;19.24;74.10;101132.31;697241;28;69469;-65
2021/08/23 01:24:54;;;;;;;11.38;10.18;;;;;;;19.24;74.24;101140.50;696247;28;92406;-63
2021/08/23 01:25:20;;;;;;;11.40;10.20;;;;;;;19.24;74.10;101137.78;695652;28;23424;-64
2021/08/23 01:25:42;;;;;;;11.25;10.02;;;;;;;19.24;74.06;101137.78;691878;28;139143;-63
2021/08/23 01:26:04;;;;;;;12.02;10.50;;;;;;;19.22;74.14;101131.69;694719;28;45268;-65
2021/08/23 01:26:29;;;;;;;11.35;10.05;;;;;;;19.24;74.16;101138.59;697279;28;46399;-65
2021/08/23 01:26:52;;;;;;;11.73;10.27;;;;;;;19.24;74.12;101132.31;695659;28;115811;-65
2021/08/23 01:27:13;;;;;;;11.23;10.07;;;;;;;19.24;74.35;101137.78;696506;28;92035;-64
2021/08/23 01:27:37;;;;;;;11.32;10.13;;;;;;;19.24;74.09;101135.03;699967;28;968;-64
2021/08/23 01:28:01;;;;;;;14.35;10.98;;;;;;;19.23;73.96;101134.22;697502;28;69413;-65
2021/08/23 01:28:31;;;;;;;11.40;10.23;;;;;;;19.22;74.15;101134.44;696977;28;90379;-65
2021/08/23 01:28:58;;;;;;;11.60;10.13;;;;;;;19.24;74.14;101140.50;694925;28;136848;-65
2021/08/23 01:29:23;;;;;;;11.82;10.25;;;;;;;19.23;74.25;101138.84;695365;28;136333;-66
2021/08/23 01:29:50;;;;;;;11.63;10.23;;;;;;;19.21;74.25;101127.28;696912;28;92368;-65
2021/08/23 01:30:12;;;;;;;11.25;10.05;;;;;;;19.22;74.29;101132.53;696057;28;121234;-64
2021/08/23 01:30:37;;;;;;;11.75;10.55;;;;;;;19.23;74.32;101134.22;698327;28;22092;-64
2021/08/23 01:31:15;;;;;;;11.57;10.38;;;;;;;19.23;74.22;101131.47;696120;28;115221;-65
2021/08/23 01:31:42;;;;;;;11.30;10.23;;;;;;;19.25;74.19;101134.00;694987;28;137545;-64
2021/08/23 01:32:12;;;;;;;11.48;9.90;;;;;;;19.24;74.14;101135.88;696124;28;102376;-65
2021/08/23 01:32:33;;;;;;;11.63;10.52;;;;;;;19.25;74.32;101143.03;695106;28;127219;-65
2021/08/23 01:32:55;;;;;;;12.75;10.85;;;;;;;19.25;74.16;101131.25;698320;28;21526;-64
2021/08/23 01:33:16;;;;;;;13.07;10.48;;;;;;;19.23;74.27;101134.22;698146;28;42031;-65
2021/08/23 01:33:39;;;;;;;11.85;10.38;;;;;;;19.23;74.14;101136.94;700299;28;1442;-65
2021/08/23 01:34:00;;;;;;;11.73;10.48;;;;;;;19.22;74.32;101132.53;697102;28;46231;-65
2021/08/23 01:34:23;;;;;;;12.65;10.73;;;;;;;19.22;74.45;101126.22;699410;28;23606;-65
2021/08/23 01:34:45;;;;;;;12.15;10.82;;;;;;;19.20;74.54;101134.66;698433;28;45742;-65
2021/08/23 01:35:09;;;;;;;12.75;11.00;;;;;;;19.20;74.37;101133.81;697474;28;63966;-64
2021/08/23 01:35:30;;;;;;;12.18;10.88;;;;;;;19.19;74.53;101135.72;696139;28;69485;-65
2021/08/23 01:35:52;;;;;;;11.82;10.57;;;;;;;19.19;74.43;101129.41;698727;28;22482;-65
2021/08/23 01:36:13;;;;;;;11.88;10.65;;;;;;;19.19;74.59;101140.38;698052;28;46866;-64
2021/08/23 01:36:36;;;;;;;11.88;10.40;;;;;;;19.19;74.57;101138.44;699280;28;23543;-65
2021/08/23 01:36:57;;;;;;;11.63;10.43;;;;;;;19.19;74.57;101135.72;697368;28;45348;-64
2021/08/23 01:37:19;;;;;;;12.63;10.48;;;;;;;19.17;74.60;101132.38;698771;28;8307;-66
2021/08/23 01:37:40;;;;;;;11.48;10.27;;;;;;;19.20;74.67;101142.03;698193;28;42462;-66
2021/08/23 01:38:02;;;;;;;11.63;10.30;;;;;;;19.19;74.66;101129.41;698373;28;46404;-65
2021/08/23 01:38:23;;;;;;;11.65;10.35;;;;;;;19.20;74.65;101133.81;697311;28;69548;-64
2021/08/23 01:38:45;;;;;;;12.15;10.40;;;;;;;19.19;74.62;101129.41;699310;28;22379;-66
2021/08/23 01:39:07;;;;;;;11.90;10.50;;;;;;;19.18;74.71;101135.94;698607;28;13788;-65
2021/08/23 01:39:32;;;;;;;12.13;10.95;;;;;;;19.19;74.72;101134.88;699544;28;18288;-65
2021/08/23 01:39:53;;;;;;;13.00;10.90;;;;;;;19.17;74.66;101129.63;696740;28;91174;-64
2021/08/23 01:40:14;;;;;;;11.50;10.30;;;;;;;19.17;74.62;101132.38;699139;28;18682;-67
2021/08/23 01:40:35;;;;;;;11.85;10.65;;;;;;;19.17;74.78;101129.63;698939;28;21528;-64
2021/08/23 01:41:00;;;;;;;12.10;10.63;;;;;;;19.18;74.68;101133.19;699077;28;22372;-66
2021/08/23 01:41:21;;;;;;;12.20;11.00;;;;;;;19.17;74.72;101131.50;694814;28;138044;-65
2021/08/23 01:41:42;;;;;;;11.65;10.50;;;;;;;19.16;74.79;101130.69;699419;28;23417;-66
2021/08/23 01:42:04;;;;;;;11.85;10.65;;;;;;;19.15;74.80;101133.66;699947;28;988;-66
2021/08/23 01:42:26;;;;;;;12.45;10.65;;;;;;;19.16;74.89;101132.59;698727;28;22417;-64
2021/08/23 01:42:47;;;;;;;11.88;10.45;;;;;;;19.14;74.79;101123.75;697044;28;70052;-64
2021/08/23 01:43:09;;;;;;;11.93;10.52;;;;;;;19.15;74.84;101131.75;697870;28;45294;-64
2021/08/23 01:43:30;;;;;;;12.85;10.85;;;;;;;19.15;74.84;101131.75;698842;28;22512;-65
2021/08/23 01:43:52;;;;;;;12.27;10.93;;;;;;;19.13;74.73;101128.41;698995;28;6645;-64
2021/08/23 01:44:13;;;;;;;12.25;10.85;;;;;;;19.16;74.88;101129.84;698664;28;28517;-64
2021/08/23 01:44:35;;;;;;;12.18;10.70;;;;;;;19.16;74.83;101129.84;699112;28;21722;-65
2021/08/23 01:44:57;;;;;;;11.85;10.75;;;;;;;19.15;75.03;101128.16;694917;28;45343;-65
2021/08/23 01:45:18;;;;;;;11.75;10.52;;;;;;;19.14;75.08;101132.81;695898;28;44198;-63